Terminal Aerodrome Forecast
Issued by NWS Raleigh/Durham, NC

Current Version | Previous Version | Text Only | Print | Product List | Glossary On
Versions: 1 2 3 4 5 6 7 8 9 10 11 12 13 14 15 16 17 18 19 20 21 22 23 24 25 26 27 28 29 30
000 FTUS42 KRAH 311721 TAFFAY TAF KFAY 311721Z 3118/0118 23014G25KT P6SM FEW250 FM010000 23009KT P6SM SKC FM010500 26005KT P6SM SCT060 FM010900 34006KT P6SM SKC FM011400 02009KT P6SM FEW035=

USA.gov is the U.S. government's official web portal to all federal, state and local government web resources and services.